createdAt,value
2024-03-31T00:02:08.597Z,8.33
2024-03-31T00:07:15.286Z,8.27
2024-03-31T00:12:21.854Z,8.25
2024-03-31T00:17:28.439Z,8.21
2024-03-31T00:22:34.912Z,8.2
2024-03-31T00:27:41.450Z,8.21
2024-03-31T00:32:48.058Z,8.19
2024-03-31T00:37:54.597Z,8.18
2024-03-31T00:43:01.216Z,8.17
2024-03-31T00:48:07.620Z,8.17
2024-03-31T00:53:14.167Z,8.18
2024-03-31T00:58:20.589Z,8.19
2024-03-31T01:03:27.151Z,8.18
2024-03-31T01:08:33.760Z,8.17
2024-03-31T01:13:40.242Z,8.22
2024-03-31T01:18:46.737Z,8.24
2024-03-31T01:23:53.375Z,8.26
2024-03-31T01:29:00.118Z,8.25
2024-03-31T01:34:06.872Z,8.24
2024-03-31T01:39:13.409Z,8.24
2024-03-31T01:44:19.977Z,8.24
2024-03-31T01:49:26.419Z,8.22
2024-03-31T01:54:32.999Z,8.23
2024-03-31T01:59:39.620Z,8.25
2024-03-31T02:04:46.068Z,8.31
2024-03-31T02:09:52.418Z,8.33
2024-03-31T02:14:59.027Z,8.32
2024-03-31T02:20:05.709Z,8.34
2024-03-31T02:25:12.321Z,8.38
2024-03-31T02:30:18.859Z,8.4
2024-03-31T02:35:25.389Z,8.44
2024-03-31T02:40:31.949Z,8.45
2024-03-31T02:45:38.500Z,8.48
2024-03-31T02:50:45.115Z,8.5
2024-03-31T02:55:51.620Z,8.51
2024-03-31T03:00:58.054Z,8.51
2024-03-31T03:06:04.523Z,8.45
2024-03-31T03:11:10.963Z,8.38
2024-03-31T03:16:17.506Z,8.32
2024-03-31T03:21:24.001Z,8.24
2024-03-31T03:26:30.596Z,8.23
2024-03-31T03:31:37.115Z,8.25
2024-03-31T03:36:43.742Z,8.31
2024-03-31T03:41:50.181Z,8.34
2024-03-31T03:46:56.882Z,8.39
2024-03-31T03:52:03.554Z,8.42
2024-03-31T03:57:09.965Z,8.43
2024-03-31T04:02:16.733Z,8.37
2024-03-31T04:07:23.079Z,8.22
2024-03-31T04:12:29.587Z,8
2024-03-31T04:17:36.108Z,7.76
2024-03-31T04:22:42.492Z,7.63
2024-03-31T04:27:48.957Z,7.59
2024-03-31T04:32:55.461Z,7.49
2024-03-31T04:38:01.976Z,7.5
2024-03-31T04:43:08.567Z,7.45
2024-03-31T04:48:15.108Z,7.4
2024-03-31T04:53:21.614Z,7.46
2024-03-31T04:58:28.337Z,7.48
2024-03-31T05:03:35.058Z,7.55
2024-03-31T05:08:41.612Z,7.59
2024-03-31T05:13:48.307Z,7.67
2024-03-31T05:18:55.111Z,7.8
2024-03-31T05:24:01.560Z,7.92
2024-03-31T05:29:08.104Z,8.03
2024-03-31T05:34:14.907Z,8.15
2024-03-31T05:39:21.446Z,8.25
2024-03-31T05:44:27.847Z,8.36
2024-03-31T05:49:34.371Z,8.45
2024-03-31T05:54:40.928Z,8.57
2024-03-31T05:59:47.603Z,8.65
2024-03-31T06:04:54.774Z,8.72
2024-03-31T06:10:01.357Z,8.75
2024-03-31T06:15:07.885Z,8.85
2024-03-31T06:20:14.652Z,8.99
2024-03-31T06:25:21.184Z,9.17
2024-03-31T06:30:27.808Z,9.42
2024-03-31T06:35:34.398Z,9.7
2024-03-31T06:40:41.134Z,9.94
2024-03-31T06:45:47.820Z,10.17
2024-03-31T06:50:54.244Z,10.1
2024-03-31T06:56:00.827Z,10.32
2024-03-31T07:01:07.379Z,10.39
2024-03-31T07:06:13.888Z,10.39
2024-03-31T07:11:20.462Z,10.49
2024-03-31T07:16:27.180Z,10.69
2024-03-31T07:21:33.898Z,10.93
2024-03-31T07:26:40.305Z,11.19
2024-03-31T07:31:46.906Z,11.45
2024-03-31T07:36:56.615Z,11.68
2024-03-31T07:42:06.633Z,11.86
2024-03-31T07:47:09.917Z,12.16
2024-03-31T07:52:16.693Z,12.41
2024-03-31T07:57:34.202Z,12.68
2024-03-31T08:02:41.022Z,12.89
2024-03-31T08:07:47.761Z,12.79
2024-03-31T08:12:54.411Z,13.52
2024-03-31T08:18:01.324Z,13.91
2024-03-31T08:23:08.331Z,14.4
2024-03-31T08:28:15.043Z,14.55
2024-03-31T08:33:21.514Z,15.03
2024-03-31T08:38:27.835Z,15.25
2024-03-31T08:43:33.670Z,14.53
2024-03-31T08:48:40.196Z,14.03
2024-03-31T08:53:47.586Z,15.11
2024-03-31T08:58:54.353Z,15.42
2024-03-31T09:04:00.785Z,14.87
2024-03-31T09:09:08.143Z,16.33
2024-03-31T09:14:15.246Z,17.59
2024-03-31T09:19:21.243Z,16.81
2024-03-31T09:24:27.996Z,17.31
2024-03-31T09:29:34.956Z,19.07
2024-03-31T09:34:41.768Z,19.9
2024-03-31T09:39:48.496Z,20.89
2024-03-31T09:44:54.188Z,19.53
2024-03-31T09:50:00.939Z,20.14
2024-03-31T09:55:07.893Z,19.86
2024-03-31T10:00:13.956Z,18.59
2024-03-31T10:05:21.509Z,21.93
2024-03-31T10:10:28.352Z,22.78
2024-03-31T10:15:35.210Z,23.75
2024-03-31T10:20:41.919Z,24.97
2024-03-31T10:25:48.740Z,25.4
2024-03-31T10:30:55.784Z,26.25
2024-03-31T10:36:01.823Z,25.94
2024-03-31T10:41:08.112Z,25.99
2024-03-31T10:46:14.981Z,27.12
2024-03-31T10:51:21.592Z,25.84
2024-03-31T10:56:28.100Z,24.22
2024-03-31T11:01:34.712Z,23.97
2024-03-31T11:06:40.801Z,23.52
2024-03-31T11:11:47.076Z,22.09
2024-03-31T11:16:53.250Z,20.73
2024-03-31T11:21:59.920Z,21.09
2024-03-31T11:27:06.269Z,21.01
2024-03-31T11:32:13.282Z,22.85
2024-03-31T11:37:22.549Z,24.69
2024-03-31T11:42:27.171Z,23.63
2024-03-31T11:47:33.607Z,23.86
2024-03-31T11:52:39.936Z,23.91
2024-03-31T11:57:46.098Z,22.44
2024-03-31T12:02:52.665Z,22.65
2024-03-31T12:07:58.659Z,21.6
2024-03-31T12:13:05.843Z,23.08
2024-03-31T12:18:12.983Z,23.94
2024-03-31T12:23:19.171Z,24.43
2024-03-31T12:28:24.878Z,22.69
2024-03-31T12:33:31.125Z,21.84
2024-03-31T12:38:37.594Z,21.57
2024-03-31T12:43:44.040Z,21.13
2024-03-31T12:48:51.430Z,22.61
2024-03-31T12:54:00.049Z,25.03
2024-03-31T12:59:06.815Z,25.3
2024-03-31T13:04:12.785Z,24.06
2024-03-31T13:09:19.539Z,24.16
2024-03-31T13:14:26.000Z,24.2
2024-03-31T13:19:32.042Z,23.62
2024-03-31T13:24:38.030Z,23.41
2024-03-31T13:29:44.109Z,22.12
2024-03-31T13:34:50.279Z,21.58
2024-03-31T13:39:56.709Z,21.18
2024-03-31T13:45:02.970Z,20.78
2024-03-31T13:50:09.344Z,20.68
2024-03-31T13:55:15.929Z,20.54
2024-03-31T14:00:22.429Z,20.29
2024-03-31T14:05:28.835Z,20.16
2024-03-31T14:10:35.240Z,20.39
2024-03-31T14:15:41.877Z,20.68
2024-03-31T14:20:48.307Z,21.17
2024-03-31T14:25:55.076Z,21.63
2024-03-31T14:31:01.759Z,21.24
2024-03-31T14:36:08.172Z,20.8
2024-03-31T14:41:14.695Z,20.9
2024-03-31T14:46:21.464Z,20.71
2024-03-31T14:51:27.803Z,20.54
2024-03-31T14:56:34.293Z,20.44
2024-03-31T15:01:40.839Z,20.31
2024-03-31T15:06:47.424Z,19.9
2024-03-31T15:11:53.981Z,19.75
2024-03-31T15:17:00.554Z,20.27
2024-03-31T15:22:07.210Z,20.46
2024-03-31T15:27:13.672Z,20.45
2024-03-31T15:32:20.167Z,20.06
2024-03-31T15:37:26.562Z,19.47
2024-03-31T15:42:33.040Z,19.41
2024-03-31T15:47:40.284Z,20.1
2024-03-31T15:52:46.901Z,20.26
2024-03-31T15:57:53.377Z,19.99
2024-03-31T16:02:59.918Z,19.52
2024-03-31T16:08:06.542Z,19.19
2024-03-31T16:13:13.010Z,19.2
2024-03-31T16:18:19.570Z,19.19
2024-03-31T16:23:26.011Z,19.03
2024-03-31T16:28:32.525Z,18.81
2024-03-31T16:33:39.027Z,18.66
2024-03-31T16:38:45.750Z,18.5
2024-03-31T16:43:52.285Z,18.4
2024-03-31T16:48:58.873Z,18.36
2024-03-31T16:54:05.408Z,18.28
2024-03-31T16:59:11.939Z,18.26
2024-03-31T17:04:18.860Z,18.11
2024-03-31T17:09:25.009Z,17.85
2024-03-31T17:14:31.587Z,17.45
2024-03-31T17:19:38.195Z,17.14
2024-03-31T17:24:44.648Z,16.84
2024-03-31T17:29:51.232Z,16.5
2024-03-31T17:35:05.558Z,16.17
2024-03-31T17:40:06.865Z,15.82
2024-03-31T17:45:13.330Z,15.59
2024-03-31T17:50:19.993Z,15.35
2024-03-31T17:55:26.378Z,15.12
2024-03-31T18:00:37.288Z,14.84
2024-03-31T18:05:39.306Z,14.53
2024-03-31T18:10:45.729Z,14.24
2024-03-31T18:15:52.082Z,13.95
2024-03-31T18:20:58.638Z,13.65
2024-03-31T18:26:05.047Z,13.45
2024-03-31T18:31:11.531Z,13.28
2024-03-31T18:36:18.173Z,13.18
2024-03-31T18:41:24.784Z,13.11
2024-03-31T18:46:31.394Z,13.15
2024-03-31T18:51:37.994Z,13.23
2024-03-31T18:56:44.506Z,13.25
2024-03-31T19:01:51.300Z,13.26
2024-03-31T19:06:57.847Z,13.34
2024-03-31T19:12:04.758Z,13.51
2024-03-31T19:17:11.164Z,13.54
2024-03-31T19:22:17.708Z,13.51
2024-03-31T19:27:24.076Z,13.53
2024-03-31T19:32:30.668Z,13.8
2024-03-31T19:37:37.581Z,14.1
2024-03-31T19:42:44.188Z,14.25
2024-03-31T19:47:50.709Z,14.28
2024-03-31T19:52:57.352Z,14.28
2024-03-31T19:58:03.792Z,14.16
2024-03-31T20:03:11.250Z,13.83
2024-03-31T20:08:17.901Z,13.63
2024-03-31T20:13:24.280Z,13.03
2024-03-31T20:18:30.848Z,12.48
2024-03-31T20:23:37.335Z,12.13
2024-03-31T20:28:43.855Z,11.87
2024-03-31T20:33:50.441Z,11.69
2024-03-31T20:38:56.894Z,11.56
2024-03-31T20:44:03.508Z,11.51
2024-03-31T20:49:11.227Z,11.49
2024-03-31T20:54:16.891Z,11.5
2024-03-31T20:59:23.352Z,11.45
2024-03-31T21:04:30.043Z,11.64
2024-03-31T21:09:36.614Z,11.71
2024-03-31T21:14:43.121Z,11.64
2024-03-31T21:19:49.549Z,11.52
2024-03-31T21:24:56.253Z,11.38
2024-03-31T21:30:02.735Z,11.39
2024-03-31T21:35:09.051Z,11.3
2024-03-31T21:40:15.583Z,11.19
2024-03-31T21:45:22.087Z,11.13
2024-03-31T21:50:28.692Z,11.06
2024-03-31T21:55:35.194Z,10.94
2024-03-31T22:00:42.567Z,10.83
2024-03-31T22:05:47.956Z,10.7
2024-03-31T22:10:54.448Z,10.6
2024-03-31T22:16:01.067Z,10.49
2024-03-31T22:21:07.637Z,10.45
2024-03-31T22:26:14.137Z,10.47
2024-03-31T22:31:20.672Z,10.47
2024-03-31T22:36:27.206Z,10.43
2024-03-31T22:41:33.710Z,10.33
2024-03-31T22:46:40.228Z,10.25
2024-03-31T22:51:46.900Z,10.19
2024-03-31T22:56:53.353Z,10.14
2024-03-31T23:01:59.726Z,10.1
2024-03-31T23:07:06.357Z,10.09
2024-03-31T23:12:12.743Z,10.08
2024-03-31T23:17:19.180Z,10.05
2024-03-31T23:22:25.861Z,10.07
2024-03-31T23:27:32.264Z,10.1
2024-03-31T23:32:38.958Z,10.14
2024-03-31T23:37:45.583Z,10.12
2024-03-31T23:42:52.179Z,10.08
2024-03-31T23:47:58.755Z,10.04
2024-03-31T23:53:05.400Z,10
2024-03-31T23:58:11.940Z,9.93
